Snow/Ice From: 17-12-2018 09:00 Until: 17:00 warning for: Snow/Ice Level: Yellow info button
suomi:
Liikennesää: Ajokeli muuttuu huonoksi päivällä lumisateen vuoksi.

svenska:
Trafikvädret: Väglaget blir dåligt på dagen p.g.a. snöfall.

english:
Traffic weather warning: Bad road conditions are expected at noon and in the afternoon because of snow. 


Thunder radar more information blitzortung!


Löydät sääaseman tiedot myös:

European Weather Network

Finland Weather Exchange

Weather Underground

AWEKAS



Weather Underground säähistoriasivu

Päivittäin yhteenveto Helmikuu 24, 2017 Yksiköt:  Molemmat    Englantilaiset   Metriset
« Edellinen Päivä
Seuraava Päivä »
Päivittäin Viikoittain Kuukausittain Vuosittain Mukautettu
  Korkea: Matala: Keskiarvo:
Lämpötila: TemperatureC °F /  -17.8 °C -9.7 °F /  -23.2 °C -7.8 °F /  -22.1 °C
Kastepiste: DewpointC °F /  -17.8 °C -10.9 °F /  -23.8 °C -9.3 °F /  -22.9 °C
Kosteus: Humidity % 86 % 89 %
Tuulen nopeus: WindSpeedKMH mph /  0 km/h - 5.4 mph /  8.7 km/h
Tuulenpuuska: WindSpeedGustKMH mph /  0 km/h - -
Tuuli:- - NW
Ilmanpaine: PressurehPa in /  0 hPa 977.2 in /  33088 hPa -
Sade: 0.0 in /  0 mm    
Historical Graphs
 
 
Taulukkotiedot Helmikuu 24, 2017
Aika Lämpötila Kastepiste Ilmanpaine Tuuli Tuulen nopeus Tuulenpuuska Kosteus Sademäärä (tunneittain)
TemperatureC °F /  -17.8 °C DewpointC °F /  -17.8 °C PressurehPa in /  0 hPa Calm     Humidity % HourlyPrecipMM in /  0 mm
00:00 -9.7 °F /  -23.2 °C -10.8 °F /  -23.8 °C 977.2 in /  33088 hPa Calm     92 % 0.0 in /  0 mm
00:15 -9.4 °F /  -23 °C -10.5 °F /  -23.6 °C 977.2 in /  33088 hPa Calm   3.2 mph /  5.1 km/h 92 % 0.0 in /  0 mm
00:30 -9.1 °F /  -22.8 °C -10.1 °F /  -23.4 °C 977.2 in /  33088 hPa West 1.6 mph /  2.6 km/h 6.4 mph /  10.3 km/h 92 % 0.0 in /  0 mm
00:45 -8.7 °F /  -22.6 °C -9.9 °F /  -23.3 °C 977.2 in /  33088 hPa West 3.2 mph /  5.1 km/h 6.4 mph /  10.3 km/h 91 % 0.0 in /  0 mm
01:00 -8.6 °F /  -22.6 °C -9.8 °F /  -23.2 °C 977.2 in /  33088 hPa West 1.6 mph /  2.6 km/h 9.7 mph /  15.6 km/h 91 % 0.0 in /  0 mm
01:15 -8.5 °F /  -22.5 °C -9.8 °F /  -23.2 °C 977.2 in /  33088 hPa West 3.2 mph /  5.1 km/h 9.7 mph /  15.6 km/h 90 % 0.0 in /  0 mm
01:30 -8.4 °F /  -22.4 °C -9.7 °F /  -23.2 °C 977.2 in /  33088 hPa WNW 3.2 mph /  5.1 km/h 14.5 mph /  23.3 km/h 90 % 0.0 in /  0 mm
01:45 -8.4 °F /  -22.4 °C -9.7 °F /  -23.2 °C 977.2 in /  33088 hPa WNW 3.2 mph /  5.1 km/h 12.9 mph /  20.8 km/h 90 % 0.0 in /  0 mm
02:00 -8.3 °F /  -22.4 °C -9.6 °F /  -23.1 °C 977.2 in /  33088 hPa WNW 3.2 mph /  5.1 km/h 12.9 mph /  20.8 km/h 90 % 0.0 in /  0 mm
02:15 -8.2 °F /  -22.3 °C -9.6 °F /  -23.1 °C 977.2 in /  33088 hPa NW 3.2 mph /  5.1 km/h 9.7 mph /  15.6 km/h 90 % 0.0 in /  0 mm
02:30 -8.2 °F /  -22.3 °C -9.6 °F /  -23.1 °C 977.2 in /  33088 hPa West 4.8 mph /  7.7 km/h 14.5 mph /  23.3 km/h 90 % 0.0 in /  0 mm
02:45 -8.2 °F /  -22.3 °C -9.5 °F /  -23.1 °C 977.2 in /  33088 hPa WNW 1.6 mph /  2.6 km/h 9.7 mph /  15.6 km/h 90 % 0.0 in /  0 mm
03:00 -8.2 °F /  -22.3 °C -9.5 °F /  -23.1 °C 977.2 in /  33088 hPa West 4.8 mph /  7.7 km/h 11.3 mph /  18.2 km/h 90 % 0.0 in /  0 mm
03:15 -8.1 °F /  -22.3 °C -9.3 °F /  -22.9 °C 977.2 in /  33088 hPa West 3.2 mph /  5.1 km/h 11.3 mph /  18.2 km/h 91 % 0.0 in /  0 mm
03:30 -8.1 °F /  -22.3 °C -9.3 °F /  -22.9 °C 977.2 in /  33088 hPa WNW 6.4 mph /  10.3 km/h 12.9 mph /  20.8 km/h 91 % 0.0 in /  0 mm
03:45 -8.1 °F /  -22.3 °C -9.4 °F /  -23 °C 977.2 in /  33088 hPa WNW 6.4 mph /  10.3 km/h 12.9 mph /  20.8 km/h 90 % 0.0 in /  0 mm
04:00 -8.1 °F /  -22.3 °C -9.3 °F /  -22.9 °C 977.2 in /  33088 hPa WNW 4.8 mph /  7.7 km/h 14.5 mph /  23.3 km/h 91 % 0.0 in /  0 mm
04:15 -8.1 °F /  -22.3 °C -9.3 °F /  -22.9 °C 977.2 in /  33088 hPa WNW 4.8 mph /  7.7 km/h 11.3 mph /  18.2 km/h 91 % 0.0 in /  0 mm
04:30 -8.1 °F /  -22.3 °C -9.5 °F /  -23.1 °C 977.2 in /  33088 hPa NW 6.4 mph /  10.3 km/h 12.9 mph /  20.8 km/h 90 % 0.0 in /  0 mm
04:45 -8.1 °F /  -22.3 °C -9.5 °F /  -23.1 °C 977.5 in /  33098.2 hPa NW 4.8 mph /  7.7 km/h 11.3 mph /  18.2 km/h 90 % 0.0 in /  0 mm
05:00 -8.1 °F /  -22.3 °C -9.5 °F /  -23.1 °C 977.5 in /  33098.2 hPa NW 4.8 mph /  7.7 km/h 14.5 mph /  23.3 km/h 90 % 0.0 in /  0 mm
05:15 -8.2 °F /  -22.3 °C -9.5 °F /  -23.1 °C 977.5 in /  33098.2 hPa NW 6.4 mph /  10.3 km/h 20.9 mph /  33.6 km/h 90 % 0.0 in /  0 mm
05:30 -8.2 °F /  -22.3 °C -9.6 °F /  -23.1 °C 977.5 in /  33098.2 hPa WNW 6.4 mph /  10.3 km/h 16.1 mph /  25.9 km/h 90 % 0.0 in /  0 mm
05:45 -8.4 °F /  -22.4 °C -9.7 °F /  -23.2 °C 977.5 in /  33098.2 hPa NW 4.8 mph /  7.7 km/h 12.9 mph /  20.8 km/h 90 % 0.0 in /  0 mm
06:00 -8.4 °F /  -22.4 °C -9.8 °F /  -23.2 °C 977.9 in /  33111.7 hPa NW 4.8 mph /  7.7 km/h 12.9 mph /  20.8 km/h 90 % 0.0 in /  0 mm
06:15 -8.6 °F /  -22.6 °C -9.9 °F /  -23.3 °C 977.9 in /  33111.7 hPa NW 4.8 mph /  7.7 km/h 16.1 mph /  25.9 km/h 90 % 0.0 in /  0 mm
06:30 -8.7 °F /  -22.6 °C -10.1 °F /  -23.4 °C 977.9 in /  33111.7 hPa NW 4.8 mph /  7.7 km/h 12.9 mph /  20.8 km/h 90 % 0.0 in /  0 mm
06:45 -8.7 °F /  -22.6 °C -10.1 °F /  -23.4 °C 978.2 in /  33121.9 hPa NW 4.8 mph /  7.7 km/h 12.9 mph /  20.8 km/h 90 % 0.0 in /  0 mm
07:00 -8.7 °F /  -22.6 °C -10.0 °F /  -23.3 °C 978.2 in /  33121.9 hPa NW 6.4 mph /  10.3 km/h 14.5 mph /  23.3 km/h 90 % 0.0 in /  0 mm
07:15 -8.8 °F /  -22.7 °C -10.2 °F /  -23.4 °C 978.2 in /  33121.9 hPa NW 6.4 mph /  10.3 km/h 12.9 mph /  20.8 km/h 90 % 0.0 in /  0 mm
07:30 -9.1 °F /  -22.8 °C -10.4 °F /  -23.6 °C 978.2 in /  33121.9 hPa NW 6.4 mph /  10.3 km/h 17.7 mph /  28.5 km/h 90 % 0.0 in /  0 mm
07:45 -9.2 °F /  -22.9 °C -10.6 °F /  -23.7 °C 978.2 in /  33121.9 hPa NW 6.4 mph /  10.3 km/h 12.9 mph /  20.8 km/h 90 % 0.0 in /  0 mm
08:00 -9.4 °F /  -23 °C -10.8 °F /  -23.8 °C 978.2 in /  33121.9 hPa WNW 4.8 mph /  7.7 km/h 11.3 mph /  18.2 km/h 90 % 0.0 in /  0 mm
08:15 -9.6 °F /  -23.1 °C -10.9 °F /  -23.8 °C 978.6 in /  33135.4 hPa NW 4.8 mph /  7.7 km/h 12.9 mph /  20.8 km/h 90 % 0.0 in /  0 mm
08:30 -9.4 °F /  -23 °C -10.6 °F /  -23.7 °C 978.6 in /  33135.4 hPa WNW 3.2 mph /  5.1 km/h 9.7 mph /  15.6 km/h 91 % 0.0 in /  0 mm
08:45 -9.2 °F /  -22.9 °C -10.6 °F /  -23.7 °C 978.9 in /  33145.6 hPa WNW 4.8 mph /  7.7 km/h 14.5 mph /  23.3 km/h 90 % 0.0 in /  0 mm
09:00 -9.2 °F /  -22.9 °C -10.5 °F /  -23.6 °C 978.9 in /  33145.6 hPa NW 4.8 mph /  7.7 km/h 11.3 mph /  18.2 km/h 90 % 0.0 in /  0 mm
09:15 -9.2 °F /  -22.9 °C -10.5 °F /  -23.6 °C 978.9 in /  33145.6 hPa NW 4.8 mph /  7.7 km/h 14.5 mph /  23.3 km/h 90 % 0.0 in /  0 mm
09:30 -9.2 °F /  -22.9 °C -10.5 °F /  -23.6 °C 979.2 in /  33155.7 hPa NW 4.8 mph /  7.7 km/h 14.5 mph /  23.3 km/h 90 % 0.0 in /  0 mm
09:45 -8.9 °F /  -22.7 °C -10.1 °F /  -23.4 °C 979.2 in /  33155.7 hPa NW 6.4 mph /  10.3 km/h 12.9 mph /  20.8 km/h 91 % 0.0 in /  0 mm
10:00 -8.4 °F /  -22.4 °C -9.7 °F /  -23.2 °C 979.2 in /  33155.7 hPa NW 6.4 mph /  10.3 km/h 16.1 mph /  25.9 km/h 90 % 0.0 in /  0 mm
10:15 -8.2 °F /  -22.3 °C -9.7 °F /  -23.2 °C 979.2 in /  33155.7 hPa NW 6.4 mph /  10.3 km/h 16.1 mph /  25.9 km/h 89 % 0.0 in /  0 mm
10:30 -8.1 °F /  -22.3 °C -9.6 °F /  -23.1 °C 979.6 in /  33169.3 hPa NW 8.0 mph /  12.9 km/h 16.1 mph /  25.9 km/h 89 % 0.0 in /  0 mm
10:45 -8.0 °F /  -22.2 °C -9.6 °F /  -23.1 °C 979.6 in /  33169.3 hPa NW 8.0 mph /  12.9 km/h 19.3 mph /  31.1 km/h 88 % 0.0 in /  0 mm
11:00 -7.9 °F /  -22.2 °C -9.6 °F /  -23.1 °C 979.6 in /  33169.3 hPa NW 6.4 mph /  10.3 km/h 19.3 mph /  31.1 km/h 88 % 0.0 in /  0 mm
11:15 -7.8 °F /  -22.1 °C -9.5 °F /  -23.1 °C 979.9 in /  33179.4 hPa NW 6.4 mph /  10.3 km/h 16.1 mph /  25.9 km/h 88 % 0.0 in /  0 mm
11:30 -7.7 °F /  -22.1 °C -9.4 °F /  -23 °C 979.9 in /  33179.4 hPa NW 9.7 mph /  15.6 km/h 19.3 mph /  31.1 km/h 88 % 0.0 in /  0 mm
11:45 -7.6 °F /  -22 °C -9.2 °F /  -22.9 °C 979.9 in /  33179.4 hPa NW 8.0 mph /  12.9 km/h 16.1 mph /  25.9 km/h 88 % 0.0 in /  0 mm
12:00 -7.4 °F /  -21.9 °C -9.0 °F /  -22.8 °C 980.2 in /  33189.6 hPa NW 8.0 mph /  12.9 km/h 17.7 mph /  28.5 km/h 88 % 0.0 in /  0 mm
12:15 -7.3 °F /  -21.8 °C -8.9 °F /  -22.7 °C 980.2 in /  33189.6 hPa NW 6.4 mph /  10.3 km/h 16.1 mph /  25.9 km/h 88 % 0.0 in /  0 mm
12:30 -7.2 °F /  -21.8 °C -8.9 °F /  -22.7 °C 980.6 in /  33203.1 hPa WNW 8.0 mph /  12.9 km/h 17.7 mph /  28.5 km/h 88 % 0.0 in /  0 mm
12:45 -7.2 °F /  -21.8 °C -8.8 °F /  -22.7 °C 980.9 in /  33213.3 hPa NW 8.0 mph /  12.9 km/h 16.1 mph /  25.9 km/h 88 % 0.0 in /  0 mm
13:00 -7.1 °F /  -21.7 °C -8.8 °F /  -22.7 °C 980.9 in /  33213.3 hPa NW 4.8 mph /  7.7 km/h 16.1 mph /  25.9 km/h 88 % 0.0 in /  0 mm
13:15 -7.1 °F /  -21.7 °C -8.7 °F /  -22.6 °C 980.9 in /  33213.3 hPa NW 6.4 mph /  10.3 km/h 16.1 mph /  25.9 km/h 88 % 0.0 in /  0 mm
13:30 -7.0 °F /  -21.7 °C -8.7 °F /  -22.6 °C 981.3 in /  33226.8 hPa NW 6.4 mph /  10.3 km/h 12.9 mph /  20.8 km/h 88 % 0.0 in /  0 mm
13:45 -6.8 °F /  -21.6 °C -8.5 °F /  -22.5 °C 981.3 in /  33226.8 hPa WNW 6.4 mph /  10.3 km/h 16.1 mph /  25.9 km/h 88 % 0.0 in /  0 mm
14:00 -6.6 °F /  -21.4 °C -8.5 °F /  -22.5 °C 981.6 in /  33237 hPa NW 8.0 mph /  12.9 km/h 19.3 mph /  31.1 km/h 86 % 0.0 in /  0 mm
14:15 -6.6 °F /  -21.4 °C -8.5 °F /  -22.5 °C 981.6 in /  33237 hPa NW 8.0 mph /  12.9 km/h 25.7 mph /  41.4 km/h 86 % 0.0 in /  0 mm
14:30 -6.5 °F /  -21.4 °C -8.5 °F /  -22.5 °C 981.6 in /  33237 hPa NW 6.4 mph /  10.3 km/h 16.1 mph /  25.9 km/h 86 % 0.0 in /  0 mm
14:45 -6.5 °F /  -21.4 °C -8.5 °F /  -22.5 °C 981.9 in /  33247.1 hPa NW 8.0 mph /  12.9 km/h 17.7 mph /  28.5 km/h 86 % 0.0 in /  0 mm
15:00 -6.7 °F /  -21.5 °C -8.6 °F /  -22.6 °C 981.9 in /  33247.1 hPa NW 11.3 mph /  18.2 km/h 20.9 mph /  33.6 km/h 86 % 0.0 in /  0 mm
15:15 -6.7 °F /  -21.5 °C -8.4 °F /  -22.4 °C 982.3 in /  33260.7 hPa NW 6.4 mph /  10.3 km/h 14.5 mph /  23.3 km/h 88 % 0.0 in /  0 mm
15:30 -6.7 °F /  -21.5 °C -8.5 °F /  -22.5 °C 982.3 in /  33260.7 hPa NW 8.0 mph /  12.9 km/h 20.9 mph /  33.6 km/h 87 % 0.0 in /  0 mm
15:45 -6.7 °F /  -21.5 °C -8.4 °F /  -22.4 °C 982.6 in /  33270.8 hPa NW 6.4 mph /  10.3 km/h 16.1 mph /  25.9 km/h 88 % 0.0 in /  0 mm
16:00 -6.7 °F /  -21.5 °C -8.5 °F /  -22.5 °C 982.6 in /  33270.8 hPa NW 6.4 mph /  10.3 km/h 14.5 mph /  23.3 km/h 87 % 0.0 in /  0 mm
16:15 -6.8 °F /  -21.6 °C -8.6 °F /  -22.6 °C 983.0 in /  33284.4 hPa NW 8.0 mph /  12.9 km/h 16.1 mph /  25.9 km/h 87 % 0.0 in /  0 mm
16:30 -6.9 °F /  -21.6 °C -8.7 °F /  -22.6 °C 983.0 in /  33284.4 hPa NW 6.4 mph /  10.3 km/h 16.1 mph /  25.9 km/h 87 % 0.0 in /  0 mm
16:45 -6.9 °F /  -21.6 °C -8.7 °F /  -22.6 °C 983.3 in /  33294.5 hPa NW 8.0 mph /  12.9 km/h 17.7 mph /  28.5 km/h 87 % 0.0 in /  0 mm
17:00 -7.0 °F /  -21.7 °C -7.5 °F /  -21.9 °C 983.6 in /  33304.7 hPa NW 4.8 mph /  7.7 km/h 12.9 mph /  20.8 km/h 96 % 0.0 in /  0 mm
17:15 -7.1 °F /  -21.7 °C -8.8 °F /  -22.7 °C 984.0 in /  33318.2 hPa NNW 6.4 mph /  10.3 km/h 14.5 mph /  23.3 km/h 88 % 0.0 in /  0 mm
17:30 -7.2 °F /  -21.8 °C -8.8 °F /  -22.7 °C 984.0 in /  33318.2 hPa NNW 4.8 mph /  7.7 km/h 11.3 mph /  18.2 km/h 88 % 0.0 in /  0 mm
17:45 -7.3 °F /  -21.8 °C -8.9 °F /  -22.7 °C 984.3 in /  33328.4 hPa NW 4.8 mph /  7.7 km/h 16.1 mph /  25.9 km/h 88 % 0.0 in /  0 mm
18:00 -7.3 °F /  -21.8 °C -8.8 °F /  -22.7 °C 984.6 in /  33338.6 hPa NW 4.8 mph /  7.7 km/h 16.1 mph /  25.9 km/h 89 % 0.0 in /  0 mm
18:15 -7.4 °F /  -21.9 °C -8.9 °F /  -22.7 °C 984.6 in /  33338.6 hPa NW 4.8 mph /  7.7 km/h 12.9 mph /  20.8 km/h 89 % 0.0 in /  0 mm
18:30 -7.5 °F /  -21.9 °C -8.9 °F /  -22.7 °C 985.0 in /  33352.1 hPa NW 4.8 mph /  7.7 km/h 12.9 mph /  20.8 km/h 90 % 0.0 in /  0 mm
18:45 -7.6 °F /  -22 °C -9.1 °F /  -22.8 °C 985.0 in /  33352.1 hPa NW 4.8 mph /  7.7 km/h 12.9 mph /  20.8 km/h 89 % 0.0 in /  0 mm
19:00 -7.7 °F /  -22.1 °C -9.2 °F /  -22.9 °C 985.0 in /  33352.1 hPa NW 3.2 mph /  5.1 km/h 12.9 mph /  20.8 km/h 89 % 0.0 in /  0 mm
19:15 -7.7 °F /  -22.1 °C -9.2 °F /  -22.9 °C 985.3 in /  33362.3 hPa NW 4.8 mph /  7.7 km/h 9.7 mph /  15.6 km/h 89 % 0.0 in /  0 mm
19:30 -7.7 °F /  -22.1 °C -9.1 °F /  -22.8 °C 985.7 in /  33375.8 hPa NW 4.8 mph /  7.7 km/h 9.7 mph /  15.6 km/h 90 % 0.0 in /  0 mm
19:45 -7.7 °F /  -22.1 °C -9.1 °F /  -22.8 °C 986.0 in /  33386 hPa NW 4.8 mph /  7.7 km/h 12.9 mph /  20.8 km/h 90 % 0.0 in /  0 mm
20:00 -7.7 °F /  -22.1 °C -9.1 °F /  -22.8 °C 986.0 in /  33386 hPa NW 3.2 mph /  5.1 km/h 9.7 mph /  15.6 km/h 90 % 0.0 in /  0 mm
20:15 -7.7 °F /  -22.1 °C -9.1 °F /  -22.8 °C 986.3 in /  33396.1 hPa NW 6.4 mph /  10.3 km/h 12.9 mph /  20.8 km/h 90 % 0.0 in /  0 mm
20:30 -7.7 °F /  -22.1 °C -9.1 °F /  -22.8 °C 986.7 in /  33409.7 hPa NW 6.4 mph /  10.3 km/h 11.3 mph /  18.2 km/h 90 % 0.0 in /  0 mm
20:45 -7.7 °F /  -22.1 °C -9.1 °F /  -22.8 °C 986.7 in /  33409.7 hPa NW 4.8 mph /  7.7 km/h 9.7 mph /  15.6 km/h 90 % 0.0 in /  0 mm
21:00 -7.7 °F /  -22.1 °C -9.1 °F /  -22.8 °C 987.0 in /  33419.8 hPa NW 3.2 mph /  5.1 km/h 11.3 mph /  18.2 km/h 90 % 0.0 in /  0 mm
21:15 -7.7 °F /  -22.1 °C -9.1 °F /  -22.8 °C 987.0 in /  33419.8 hPa NW 4.8 mph /  7.7 km/h 9.7 mph /  15.6 km/h 90 % 0.0 in /  0 mm
21:30 -7.7 °F /  -22.1 °C -8.9 °F /  -22.7 °C 987.4 in /  33433.4 hPa NW 6.4 mph /  10.3 km/h 12.9 mph /  20.8 km/h 91 % 0.0 in /  0 mm
21:45 -7.7 °F /  -22.1 °C -8.9 °F /  -22.7 °C 987.4 in /  33433.4 hPa NW 4.8 mph /  7.7 km/h 9.7 mph /  15.6 km/h 91 % 0.0 in /  0 mm
22:00 -7.7 °F /  -22.1 °C -8.9 °F /  -22.7 °C 987.7 in /  33443.5 hPa NW 4.8 mph /  7.7 km/h 9.7 mph /  15.6 km/h 91 % 0.0 in /  0 mm
22:15 -7.7 °F /  -22.1 °C -8.9 °F /  -22.7 °C 987.7 in /  33443.5 hPa NW 4.8 mph /  7.7 km/h 9.7 mph /  15.6 km/h 91 % 0.0 in /  0 mm
22:30 -7.7 °F /  -22.1 °C -8.9 °F /  -22.7 °C 988.0 in /  33453.7 hPa NW 6.4 mph /  10.3 km/h 11.3 mph /  18.2 km/h 91 % 0.0 in /  0 mm
22:45 -7.7 °F /  -22.1 °C -8.9 °F /  -22.7 °C 988.4 in /  33467.2 hPa NW 6.4 mph /  10.3 km/h 11.3 mph /  18.2 km/h 91 % 0.0 in /  0 mm
23:00 -7.8 °F /  -22.1 °C -9.0 °F /  -22.8 °C 988.4 in /  33467.2 hPa NW 6.4 mph /  10.3 km/h 11.3 mph /  18.2 km/h 91 % 0.0 in /  0 mm
23:15 -7.9 °F /  -22.2 °C -9.2 °F /  -22.9 °C 988.7 in /  33477.4 hPa NW 4.8 mph /  7.7 km/h 9.7 mph /  15.6 km/h 91 % 0.0 in /  0 mm
23:30 -7.9 °F /  -22.2 °C -9.2 °F /  -22.9 °C 989.1 in /  33490.9 hPa NW 3.2 mph /  5.1 km/h 9.7 mph /  15.6 km/h 91 % 0.0 in /  0 mm
23:45 -7.9 °F /  -22.2 °C -9.2 °F /  -22.9 °C 989.1 in /  33490.9 hPa NW 4.8 mph /  7.7 km/h 8.0 mph /  12.9 km/h 91 % 0.0 in /  0 mm
Esan sääasema
Terveisin Weather Underground - 2.75 mb

Alkuperäinen skripti  Jim McMurry - jmcmurry@mwt.net Sovitettu myös templatelle  Wim van der Kuil - Leuven-Template.eu

Laitteet joita käytämme:

Sääasema
Davis VP2

Sääasemaohjelma
Cumulus

Sääaseman tietokone
Asus EeePC

Palveluntarjoaja
Suncomet

Davis VP2

Cumulus

Asus EeePC

Suncomet